Forside
METAR-TAF:

METAR-TAF

Lufthavne :

Newark-Heath Airport

Newark, Ohio, USA

Breddekreds: 40-01-22N, længdekreds: 082-27-45W, højde: 269 m

Aktuelle vejr

Denne rapport blev lavet for 27 minutter siden, kl. 16:54 UTC
Vind 9 kt fra sydsydvest
Temperatur 8°C
Fugtighed 36%
Tryk 1020 hPa
Sigt: 16.1 km
Overskyet i en højde af 7000 ft

METAR: KVTA 231654Z AUTO 21009KT 10SM OVC070 08/M06 A3013 RMK AO2 SLP210 T00781056

Tid: 12:21 (17:21 UTC)


TAF: fraværende

Vejrobservationer og prognoser fra mere end 4000 lufthavne (METAR og TAF).

De gule og røde prikker repræsenterer de meteorologiske stationer.

Flyt musen over at se navnet på stationen.

Så klik over at se vejr observationer og prognoser.

At skifte det kort: Klik på de grønne knapper med et sort kors for at zoome ind; på den grønne knap med en bindestreg for at zoome ud; eller på de grønne pile for tilstødende kort.


METAR-TAF: